sensor_id;sensor_type;location;lat;lon;timestamp;P1;durP1;ratioP1;P2;durP2;ratioP2
49412;SDS011;35493;50.276;9.372;2022-10-16T00:00:03;1.55;;;0.70;;
49412;SDS011;35493;50.276;9.372;2022-10-16T00:02:37;1.33;;;0.60;;
49412;SDS011;35493;50.276;9.372;2022-10-16T00:05:06;3.10;;;0.90;;
49412;SDS011;35493;50.276;9.372;2022-10-16T00:07:33;2.22;;;0.60;;
49412;SDS011;35493;50.276;9.372;2022-10-16T00:10:00;3.13;;;0.73;;
49412;SDS011;35493;50.276;9.372;2022-10-16T00:12:29;1.85;;;0.60;;
49412;SDS011;35493;50.276;9.372;2022-10-16T00:14:56;2.05;;;0.70;;
49412;SDS011;35493;50.276;9.372;2022-10-16T00:17:23;1.63;;;0.77;;
49412;SDS011;35493;50.276;9.372;2022-10-16T00:19:50;1.80;;;0.82;;
49412;SDS011;35493;50.276;9.372;2022-10-16T00:22:18;2.75;;;0.60;;
49412;SDS011;35493;50.276;9.372;2022-10-16T00:24:45;2.85;;;0.70;;
49412;SDS011;35493;50.276;9.372;2022-10-16T00:27:12;2.00;;;0.80;;
49412;SDS011;35493;50.276;9.372;2022-10-16T00:29:39;2.25;;;0.50;;
49412;SDS011;35493;50.276;9.372;2022-10-16T00:32:06;2.13;;;0.50;;
49412;SDS011;35493;50.276;9.372;2022-10-16T00:34:33;2.13;;;0.55;;
49412;SDS011;35493;50.276;9.372;2022-10-16T00:37:00;3.28;;;0.75;;
49412;SDS011;35493;50.276;9.372;2022-10-16T00:39:28;5.07;;;0.57;;
49412;SDS011;35493;50.276;9.372;2022-10-16T00:41:55;4.53;;;0.50;;
49412;SDS011;35493;50.276;9.372;2022-10-16T00:44:45;2.42;;;0.50;;
49412;SDS011;35493;50.276;9.372;2022-10-16T00:47:18;4.20;;;0.52;;
49412;SDS011;35493;50.276;9.372;2022-10-16T00:49:48;1.17;;;0.40;;
49412;SDS011;35493;50.276;9.372;2022-10-16T00:52:18;3.60;;;0.50;;
49412;SDS011;35493;50.276;9.372;2022-10-16T00:54:47;3.90;;;0.60;;
49412;SDS011;35493;50.276;9.372;2022-10-16T00:57:16;5.13;;;0.60;;
49412;SDS011;35493;50.276;9.372;2022-10-16T00:59:43;1.92;;;0.68;;
49412;SDS011;35493;50.276;9.372;2022-10-16T01:02:12;1.15;;;0.65;;
49412;SDS011;35493;50.276;9.372;2022-10-16T01:04:41;1.25;;;0.50;;
49412;SDS011;35493;50.276;9.372;2022-10-16T01:07:12;1.50;;;1.05;;
49412;SDS011;35493;50.276;9.372;2022-10-16T01:09:46;1.65;;;0.80;;
49412;SDS011;35493;50.276;9.372;2022-10-16T01:12:26;2.15;;;0.47;;
49412;SDS011;35493;50.276;9.372;2022-10-16T01:15:04;5.47;;;0.50;;
49412;SDS011;35493;50.276;9.372;2022-10-16T01:17:38;3.60;;;0.80;;
49412;SDS011;35493;50.276;9.372;2022-10-16T01:20:13;1.90;;;0.75;;
49412;SDS011;35493;50.276;9.372;2022-10-16T01:22:54;1.50;;;0.50;;
49412;SDS011;35493;50.276;9.372;2022-10-16T01:25:32;3.30;;;0.73;;
49412;SDS011;35493;50.276;9.372;2022-10-16T01:28:20;2.35;;;0.60;;
49412;SDS011;35493;50.276;9.372;2022-10-16T01:30:50;5.35;;;0.70;;
49412;SDS011;35493;50.276;9.372;2022-10-16T01:33:22;1.73;;;0.70;;
49412;SDS011;35493;50.276;9.372;2022-10-16T01:35:59;2.20;;;0.60;;
49412;SDS011;35493;50.276;9.372;2022-10-16T01:38:33;1.20;;;0.50;;
49412;SDS011;35493;50.276;9.372;2022-10-16T01:41:04;2.57;;;0.80;;
49412;SDS011;35493;50.276;9.372;2022-10-16T01:43:37;1.85;;;0.80;;
49412;SDS011;35493;50.276;9.372;2022-10-16T01:46:10;1.90;;;0.70;;
49412;SDS011;35493;50.276;9.372;2022-10-16T01:48:39;4.80;;;0.73;;
49412;SDS011;35493;50.276;9.372;2022-10-16T01:51:07;1.17;;;0.65;;
49412;SDS011;35493;50.276;9.372;2022-10-16T01:53:36;2.10;;;0.73;;
49412;SDS011;35493;50.276;9.372;2022-10-16T01:56:04;3.03;;;0.70;;
49412;SDS011;35493;50.276;9.372;2022-10-16T01:58:37;2.90;;;1.17;;
49412;SDS011;35493;50.276;9.372;2022-10-16T02:01:09;3.30;;;0.80;;
49412;SDS011;35493;50.276;9.372;2022-10-16T02:03:39;3.58;;;0.95;;
49412;SDS011;35493;50.276;9.372;2022-10-16T02:06:07;1.38;;;0.68;;
49412;SDS011;35493;50.276;9.372;2022-10-16T02:08:35;2.45;;;0.85;;
49412;SDS011;35493;50.276;9.372;2022-10-16T02:11:04;4.05;;;0.73;;
49412;SDS011;35493;50.276;9.372;2022-10-16T02:13:32;2.17;;;0.80;;
49412;SDS011;35493;50.276;9.372;2022-10-16T02:16:03;2.45;;;1.13;;
49412;SDS011;35493;50.276;9.372;2022-10-16T02:18:31;3.00;;;0.80;;
49412;SDS011;35493;50.276;9.372;2022-10-16T02:20:59;2.20;;;1.00;;
49412;SDS011;35493;50.276;9.372;2022-10-16T02:23:30;2.60;;;1.00;;
49412;SDS011;35493;50.276;9.372;2022-10-16T02:26:04;2.72;;;0.82;;
49412;SDS011;35493;50.276;9.372;2022-10-16T02:28:35;1.52;;;0.88;;
49412;SDS011;35493;50.276;9.372;2022-10-16T02:31:09;5.05;;;0.90;;
49412;SDS011;35493;50.276;9.372;2022-10-16T02:33:40;3.70;;;0.90;;
49412;SDS011;35493;50.276;9.372;2022-10-16T02:36:09;2.33;;;1.08;;
49412;SDS011;35493;50.276;9.372;2022-10-16T02:38:37;4.97;;;1.00;;
49412;SDS011;35493;50.276;9.372;2022-10-16T02:41:05;3.63;;;1.00;;
49412;SDS011;35493;50.276;9.372;2022-10-16T02:43:32;3.72;;;0.90;;
49412;SDS011;35493;50.276;9.372;2022-10-16T02:45:59;1.27;;;0.60;;
49412;SDS011;35493;50.276;9.372;2022-10-16T02:48:28;3.45;;;0.82;;
49412;SDS011;35493;50.276;9.372;2022-10-16T02:50:55;1.90;;;0.90;;
49412;SDS011;35493;50.276;9.372;2022-10-16T02:53:22;5.10;;;0.80;;
49412;SDS011;35493;50.276;9.372;2022-10-16T02:55:49;2.88;;;0.70;;
49412;SDS011;35493;50.276;9.372;2022-10-16T02:58:16;2.25;;;0.85;;
49412;SDS011;35493;50.276;9.372;2022-10-16T03:00:43;1.70;;;0.65;;
49412;SDS011;35493;50.276;9.372;2022-10-16T03:03:12;3.50;;;0.73;;
49412;SDS011;35493;50.276;9.372;2022-10-16T03:05:40;1.35;;;0.73;;
49412;SDS011;35493;50.276;9.372;2022-10-16T03:08:10;2.17;;;0.50;;
49412;SDS011;35493;50.276;9.372;2022-10-16T03:10:37;3.15;;;0.60;;
49412;SDS011;35493;50.276;9.372;2022-10-16T03:13:04;1.42;;;0.70;;
49412;SDS011;35493;50.276;9.372;2022-10-16T03:15:31;1.30;;;0.52;;
49412;SDS011;35493;50.276;9.372;2022-10-16T03:17:58;2.45;;;0.55;;
49412;SDS011;35493;50.276;9.372;2022-10-16T03:20:25;1.92;;;0.85;;
49412;SDS011;35493;50.276;9.372;2022-10-16T03:22:54;3.05;;;0.47;;
49412;SDS011;35493;50.276;9.372;2022-10-16T03:25:21;3.20;;;0.68;;
49412;SDS011;35493;50.276;9.372;2022-10-16T03:27:48;2.00;;;0.60;;
49412;SDS011;35493;50.276;9.372;2022-10-16T03:30:15;3.03;;;1.23;;
49412;SDS011;35493;50.276;9.372;2022-10-16T03:32:42;4.50;;;0.60;;
49412;SDS011;35493;50.276;9.372;2022-10-16T03:35:10;2.70;;;0.63;;
49412;SDS011;35493;50.276;9.372;2022-10-16T03:37:39;1.65;;;0.60;;
49412;SDS011;35493;50.276;9.372;2022-10-16T03:40:08;1.90;;;0.50;;
49412;SDS011;35493;50.276;9.372;2022-10-16T03:42:38;0.77;;;0.40;;
49412;SDS011;35493;50.276;9.372;2022-10-16T03:45:05;0.77;;;0.40;;
49412;SDS011;35493;50.276;9.372;2022-10-16T03:50:05;1.00;;;0.50;;
49412;SDS011;35493;50.276;9.372;2022-10-16T03:52:33;5.88;;;2.05;;
49412;SDS011;35493;50.276;9.372;2022-10-16T03:55:00;2.33;;;0.50;;
49412;SDS011;35493;50.276;9.372;2022-10-16T03:57:30;3.58;;;0.60;;
49412;SDS011;35493;50.276;9.372;2022-10-16T03:59:57;0.90;;;0.50;;
49412;SDS011;35493;50.276;9.372;2022-10-16T04:02:24;2.28;;;0.70;;
49412;SDS011;35493;50.276;9.372;2022-10-16T04:04:51;2.63;;;0.60;;
49412;SDS011;35493;50.276;9.372;2022-10-16T04:07:17;1.73;;;0.50;;
49412;SDS011;35493;50.276;9.372;2022-10-16T04:09:44;1.85;;;0.57;;
49412;SDS011;35493;50.276;9.372;2022-10-16T04:12:12;0.85;;;0.60;;
49412;SDS011;35493;50.276;9.372;2022-10-16T04:14:41;1.15;;;0.60;;
49412;SDS011;35493;50.276;9.372;2022-10-16T04:17:07;1.58;;;0.63;;
49412;SDS011;35493;50.276;9.372;2022-10-16T04:19:36;2.45;;;0.70;;
49412;SDS011;35493;50.276;9.372;2022-10-16T04:22:02;2.70;;;0.80;;
49412;SDS011;35493;50.276;9.372;2022-10-16T04:24:29;0.88;;;0.47;;
49412;SDS011;35493;50.276;9.372;2022-10-16T04:26:56;1.13;;;0.60;;
49412;SDS011;35493;50.276;9.372;2022-10-16T04:29:23;0.88;;;0.47;;
49412;SDS011;35493;50.276;9.372;2022-10-16T04:31:51;2.00;;;1.50;;
49412;SDS011;35493;50.276;9.372;2022-10-16T04:34:18;1.20;;;0.35;;
49412;SDS011;35493;50.276;9.372;2022-10-16T04:36:46;2.03;;;0.60;;
49412;SDS011;35493;50.276;9.372;2022-10-16T04:39:14;2.13;;;0.80;;
49412;SDS011;35493;50.276;9.372;2022-10-16T04:41:42;1.58;;;0.70;;
49412;SDS011;35493;50.276;9.372;2022-10-16T04:44:09;1.33;;;0.65;;
49412;SDS011;35493;50.276;9.372;2022-10-16T04:46:38;0.98;;;0.52;;
49412;SDS011;35493;50.276;9.372;2022-10-16T04:49:10;2.42;;;0.70;;
49412;SDS011;35493;50.276;9.372;2022-10-16T04:51:39;2.70;;;0.73;;
49412;SDS011;35493;50.276;9.372;2022-10-16T04:54:06;2.47;;;0.68;;
49412;SDS011;35493;50.276;9.372;2022-10-16T04:56:33;0.90;;;0.60;;
49412;SDS011;35493;50.276;9.372;2022-10-16T04:59:05;2.45;;;0.80;;
49412;SDS011;35493;50.276;9.372;2022-10-16T05:01:32;2.20;;;0.90;;
49412;SDS011;35493;50.276;9.372;2022-10-16T05:03:59;3.92;;;0.80;;
49412;SDS011;35493;50.276;9.372;2022-10-16T05:06:27;1.38;;;0.70;;
49412;SDS011;35493;50.276;9.372;2022-10-16T05:08:54;1.65;;;0.70;;
49412;SDS011;35493;50.276;9.372;2022-10-16T05:11:21;2.92;;;0.95;;
49412;SDS011;35493;50.276;9.372;2022-10-16T05:13:48;2.60;;;1.23;;
49412;SDS011;35493;50.276;9.372;2022-10-16T05:16:15;1.15;;;0.70;;
49412;SDS011;35493;50.276;9.372;2022-10-16T05:18:42;1.88;;;0.60;;
49412;SDS011;35493;50.276;9.372;2022-10-16T05:21:09;3.50;;;0.90;;
49412;SDS011;35493;50.276;9.372;2022-10-16T05:23:37;2.10;;;0.60;;
49412;SDS011;35493;50.276;9.372;2022-10-16T05:26:04;3.67;;;0.80;;
49412;SDS011;35493;50.276;9.372;2022-10-16T05:28:31;1.27;;;0.57;;
49412;SDS011;35493;50.276;9.372;2022-10-16T05:30:58;1.45;;;0.45;;
49412;SDS011;35493;50.276;9.372;2022-10-16T05:33:25;1.67;;;0.60;;
49412;SDS011;35493;50.276;9.372;2022-10-16T05:35:52;1.27;;;0.63;;
49412;SDS011;35493;50.276;9.372;2022-10-16T05:38:19;2.40;;;0.60;;
49412;SDS011;35493;50.276;9.372;2022-10-16T05:40:51;1.17;;;0.60;;
49412;SDS011;35493;50.276;9.372;2022-10-16T05:43:18;1.80;;;0.82;;
49412;SDS011;35493;50.276;9.372;2022-10-16T05:45:52;1.38;;;0.68;;
49412;SDS011;35493;50.276;9.372;2022-10-16T05:48:20;1.88;;;0.60;;
49412;SDS011;35493;50.276;9.372;2022-10-16T05:50:47;0.90;;;0.60;;
49412;SDS011;35493;50.276;9.372;2022-10-16T05:53:14;2.35;;;0.75;;
49412;SDS011;35493;50.276;9.372;2022-10-16T05:55:41;1.98;;;0.70;;
49412;SDS011;35493;50.276;9.372;2022-10-16T05:58:09;2.25;;;1.02;;
49412;SDS011;35493;50.276;9.372;2022-10-16T06:00:36;2.65;;;1.27;;
49412;SDS011;35493;50.276;9.372;2022-10-16T06:03:03;2.47;;;1.17;;
49412;SDS011;35493;50.276;9.372;2022-10-16T06:05:31;2.80;;;1.00;;
49412;SDS011;35493;50.276;9.372;2022-10-16T06:08:01;2.28;;;1.08;;
49412;SDS011;35493;50.276;9.372;2022-10-16T06:10:29;4.05;;;1.27;;
49412;SDS011;35493;50.276;9.372;2022-10-16T06:12:56;3.42;;;0.82;;
49412;SDS011;35493;50.276;9.372;2022-10-16T06:15:24;2.35;;;0.90;;
49412;SDS011;35493;50.276;9.372;2022-10-16T06:17:51;2.95;;;1.00;;
49412;SDS011;35493;50.276;9.372;2022-10-16T06:20:18;2.83;;;1.30;;
49412;SDS011;35493;50.276;9.372;2022-10-16T06:22:45;3.42;;;1.00;;
49412;SDS011;35493;50.276;9.372;2022-10-16T06:25:11;2.92;;;1.15;;
49412;SDS011;35493;50.276;9.372;2022-10-16T06:27:39;2.30;;;1.05;;
49412;SDS011;35493;50.276;9.372;2022-10-16T06:30:06;2.40;;;0.90;;
49412;SDS011;35493;50.276;9.372;2022-10-16T06:32:35;1.92;;;0.82;;
49412;SDS011;35493;50.276;9.372;2022-10-16T06:35:02;4.07;;;0.65;;
49412;SDS011;35493;50.276;9.372;2022-10-16T06:37:30;3.13;;;0.98;;
49412;SDS011;35493;50.276;9.372;2022-10-16T06:39:56;2.03;;;1.10;;
49412;SDS011;35493;50.276;9.372;2022-10-16T06:42:25;2.72;;;1.27;;
49412;SDS011;35493;50.276;9.372;2022-10-16T06:44:52;2.55;;;1.10;;
49412;SDS011;35493;50.276;9.372;2022-10-16T06:47:19;2.00;;;1.00;;
49412;SDS011;35493;50.276;9.372;2022-10-16T06:49:47;2.08;;;1.05;;
49412;SDS011;35493;50.276;9.372;2022-10-16T06:52:14;4.53;;;1.30;;
49412;SDS011;35493;50.276;9.372;2022-10-16T06:54:40;1.92;;;1.00;;
49412;SDS011;35493;50.276;9.372;2022-10-16T06:57:08;2.92;;;1.25;;
49412;SDS011;35493;50.276;9.372;2022-10-16T06:59:35;2.42;;;1.23;;
49412;SDS011;35493;50.276;9.372;2022-10-16T07:02:02;6.13;;;1.35;;
49412;SDS011;35493;50.276;9.372;2022-10-16T07:04:29;5.55;;;1.30;;
49412;SDS011;35493;50.276;9.372;2022-10-16T07:06:57;3.72;;;1.38;;
49412;SDS011;35493;50.276;9.372;2022-10-16T07:09:26;3.22;;;1.20;;
49412;SDS011;35493;50.276;9.372;2022-10-16T07:11:53;2.47;;;1.10;;
49412;SDS011;35493;50.276;9.372;2022-10-16T07:14:20;2.25;;;1.00;;
49412;SDS011;35493;50.276;9.372;2022-10-16T07:16:48;1.88;;;1.13;;
49412;SDS011;35493;50.276;9.372;2022-10-16T07:19:15;2.95;;;1.40;;
49412;SDS011;35493;50.276;9.372;2022-10-16T07:21:43;2.42;;;1.30;;
49412;SDS011;35493;50.276;9.372;2022-10-16T07:24:13;4.60;;;1.48;;
49412;SDS011;35493;50.276;9.372;2022-10-16T07:26:41;3.78;;;1.70;;
49412;SDS011;35493;50.276;9.372;2022-10-16T07:29:11;3.22;;;1.60;;
49412;SDS011;35493;50.276;9.372;2022-10-16T07:31:40;2.47;;;1.40;;
49412;SDS011;35493;50.276;9.372;2022-10-16T07:34:08;4.50;;;1.73;;
49412;SDS011;35493;50.276;9.372;2022-10-16T07:36:35;3.88;;;1.80;;
49412;SDS011;35493;50.276;9.372;2022-10-16T07:39:02;3.17;;;1.95;;
49412;SDS011;35493;50.276;9.372;2022-10-16T07:41:31;4.38;;;2.00;;
49412;SDS011;35493;50.276;9.372;2022-10-16T07:44:02;3.75;;;2.17;;
49412;SDS011;35493;50.276;9.372;2022-10-16T07:46:29;3.22;;;1.98;;
49412;SDS011;35493;50.276;9.372;2022-10-16T07:48:58;5.15;;;2.40;;
49412;SDS011;35493;50.276;9.372;2022-10-16T07:51:26;5.03;;;2.13;;
49412;SDS011;35493;50.276;9.372;2022-10-16T07:53:53;5.47;;;2.58;;
49412;SDS011;35493;50.276;9.372;2022-10-16T07:56:20;5.03;;;2.58;;
49412;SDS011;35493;50.276;9.372;2022-10-16T07:58:51;4.20;;;2.08;;
49412;SDS011;35493;50.276;9.372;2022-10-16T08:01:18;3.97;;;2.28;;
49412;SDS011;35493;50.276;9.372;2022-10-16T08:03:46;5.90;;;2.28;;
49412;SDS011;35493;50.276;9.372;2022-10-16T08:06:14;4.30;;;2.08;;
49412;SDS011;35493;50.276;9.372;2022-10-16T08:08:42;4.28;;;2.40;;
49412;SDS011;35493;50.276;9.372;2022-10-16T08:11:09;5.05;;;2.25;;
49412;SDS011;35493;50.276;9.372;2022-10-16T08:13:36;4.97;;;2.20;;
49412;SDS011;35493;50.276;9.372;2022-10-16T08:16:05;5.38;;;1.90;;
49412;SDS011;35493;50.276;9.372;2022-10-16T08:18:34;5.35;;;1.90;;
49412;SDS011;35493;50.276;9.372;2022-10-16T08:21:02;3.17;;;1.70;;
49412;SDS011;35493;50.276;9.372;2022-10-16T08:23:29;3.65;;;1.70;;
49412;SDS011;35493;50.276;9.372;2022-10-16T08:26:01;2.72;;;1.52;;
49412;SDS011;35493;50.276;9.372;2022-10-16T08:28:29;3.05;;;1.58;;
49412;SDS011;35493;50.276;9.372;2022-10-16T08:31:04;3.58;;;1.60;;
49412;SDS011;35493;50.276;9.372;2022-10-16T08:33:33;3.78;;;1.58;;
49412;SDS011;35493;50.276;9.372;2022-10-16T08:36:01;3.22;;;1.60;;
49412;SDS011;35493;50.276;9.372;2022-10-16T08:38:29;3.65;;;1.38;;
49412;SDS011;35493;50.276;9.372;2022-10-16T08:40:57;4.78;;;1.33;;
49412;SDS011;35493;50.276;9.372;2022-10-16T08:43:43;2.40;;;1.50;;
49412;SDS011;35493;50.276;9.372;2022-10-16T08:46:28;4.75;;;1.35;;
49412;SDS011;35493;50.276;9.372;2022-10-16T08:49:05;2.55;;;1.48;;
49412;SDS011;35493;50.276;9.372;2022-10-16T08:51:37;5.82;;;1.83;;
49412;SDS011;35493;50.276;9.372;2022-10-16T08:54:06;3.25;;;1.42;;
49412;SDS011;35493;50.276;9.372;2022-10-16T08:56:45;4.15;;;1.40;;
49412;SDS011;35493;50.276;9.372;2022-10-16T08:59:11;4.07;;;1.50;;
49412;SDS011;35493;50.276;9.372;2022-10-16T09:01:44;3.65;;;1.33;;
49412;SDS011;35493;50.276;9.372;2022-10-16T09:04:29;4.25;;;1.70;;
49412;SDS011;35493;50.276;9.372;2022-10-16T09:07:26;4.25;;;1.80;;
49412;SDS011;35493;50.276;9.372;2022-10-16T09:10:09;3.38;;;1.67;;
49412;SDS011;35493;50.276;9.372;2022-10-16T09:12:46;4.63;;;1.88;;
49412;SDS011;35493;50.276;9.372;2022-10-16T09:15:21;2.80;;;1.48;;
49412;SDS011;35493;50.276;9.372;2022-10-16T09:17:58;4.22;;;1.88;;
49412;SDS011;35493;50.276;9.372;2022-10-16T09:20:32;5.25;;;1.90;;
49412;SDS011;35493;50.276;9.372;2022-10-16T09:23:15;3.13;;;1.52;;
49412;SDS011;35493;50.276;9.372;2022-10-16T09:25:47;2.60;;;1.58;;
49412;SDS011;35493;50.276;9.372;2022-10-16T09:30:44;5.00;;;1.40;;
49412;SDS011;35493;50.276;9.372;2022-10-16T09:33:15;3.08;;;1.50;;
49412;SDS011;35493;50.276;9.372;2022-10-16T09:35:45;4.22;;;1.60;;
49412;SDS011;35493;50.276;9.372;2022-10-16T09:40:48;3.08;;;1.40;;
49412;SDS011;35493;50.276;9.372;2022-10-16T09:43:19;2.90;;;1.52;;
49412;SDS011;35493;50.276;9.372;2022-10-16T09:45:54;3.78;;;1.40;;
49412;SDS011;35493;50.276;9.372;2022-10-16T09:48:23;2.65;;;1.25;;
49412;SDS011;35493;50.276;9.372;2022-10-16T09:50:57;4.75;;;1.60;;
49412;SDS011;35493;50.276;9.372;2022-10-16T09:53:25;2.85;;;1.55;;
49412;SDS011;35493;50.276;9.372;2022-10-16T09:56:04;2.20;;;1.20;;
49412;SDS011;35493;50.276;9.372;2022-10-16T09:58:32;1.90;;;1.20;;
49412;SDS011;35493;50.276;9.372;2022-10-16T10:00:59;6.43;;;1.85;;
49412;SDS011;35493;50.276;9.372;2022-10-16T10:03:36;3.67;;;1.60;;
49412;SDS011;35493;50.276;9.372;2022-10-16T10:06:07;5.03;;;1.38;;
49412;SDS011;35493;50.276;9.372;2022-10-16T10:08:53;2.17;;;1.30;;
49412;SDS011;35493;50.276;9.372;2022-10-16T10:11:38;2.53;;;1.42;;
49412;SDS011;35493;50.276;9.372;2022-10-16T10:14:17;3.83;;;1.30;;
49412;SDS011;35493;50.276;9.372;2022-10-16T10:17:01;3.63;;;1.50;;
49412;SDS011;35493;50.276;9.372;2022-10-16T10:19:42;2.97;;;1.40;;
49412;SDS011;35493;50.276;9.372;2022-10-16T10:22:15;2.45;;;1.30;;
49412;SDS011;35493;50.276;9.372;2022-10-16T10:24:56;4.45;;;1.50;;
49412;SDS011;35493;50.276;9.372;2022-10-16T10:27:31;5.18;;;1.48;;
49412;SDS011;35493;50.276;9.372;2022-10-16T10:30:06;2.80;;;1.33;;
49412;SDS011;35493;50.276;9.372;2022-10-16T10:32:43;2.88;;;1.60;;
49412;SDS011;35493;50.276;9.372;2022-10-16T10:35:20;3.80;;;1.63;;
49412;SDS011;35493;50.276;9.372;2022-10-16T10:38:04;4.60;;;1.60;;
49412;SDS011;35493;50.276;9.372;2022-10-16T10:40:42;3.15;;;1.45;;
49412;SDS011;35493;50.276;9.372;2022-10-16T10:43:23;3.45;;;1.60;;
49412;SDS011;35493;50.276;9.372;2022-10-16T10:45:59;3.47;;;1.42;;
49412;SDS011;35493;50.276;9.372;2022-10-16T10:48:39;3.83;;;1.50;;
49412;SDS011;35493;50.276;9.372;2022-10-16T10:51:27;3.55;;;1.52;;
49412;SDS011;35493;50.276;9.372;2022-10-16T10:54:01;3.72;;;1.60;;
49412;SDS011;35493;50.276;9.372;2022-10-16T10:56:41;3.70;;;1.33;;
49412;SDS011;35493;50.276;9.372;2022-10-16T11:02:24;2.60;;;1.55;;
49412;SDS011;35493;50.276;9.372;2022-10-16T11:05:01;3.10;;;1.60;;
49412;SDS011;35493;50.276;9.372;2022-10-16T11:07:49;5.00;;;1.80;;
49412;SDS011;35493;50.276;9.372;2022-10-16T11:10:22;3.22;;;1.40;;
49412;SDS011;35493;50.276;9.372;2022-10-16T11:12:52;2.95;;;1.58;;
49412;SDS011;35493;50.276;9.372;2022-10-16T11:15:25;2.20;;;1.02;;
49412;SDS011;35493;50.276;9.372;2022-10-16T11:17:57;2.90;;;1.50;;
49412;SDS011;35493;50.276;9.372;2022-10-16T11:20:32;3.28;;;1.70;;
49412;SDS011;35493;50.276;9.372;2022-10-16T11:23:05;3.35;;;1.10;;
49412;SDS011;35493;50.276;9.372;2022-10-16T11:25:39;2.53;;;1.15;;
49412;SDS011;35493;50.276;9.372;2022-10-16T11:28:10;2.17;;;1.13;;
49412;SDS011;35493;50.276;9.372;2022-10-16T11:30:41;1.92;;;1.15;;
49412;SDS011;35493;50.276;9.372;2022-10-16T11:36:01;2.80;;;1.33;;
49412;SDS011;35493;50.276;9.372;2022-10-16T11:38:37;2.67;;;1.40;;
49412;SDS011;35493;50.276;9.372;2022-10-16T11:41:10;1.90;;;1.00;;
49412;SDS011;35493;50.276;9.372;2022-10-16T11:43:46;2.65;;;1.20;;
49412;SDS011;35493;50.276;9.372;2022-10-16T11:46:20;4.47;;;1.48;;
49412;SDS011;35493;50.276;9.372;2022-10-16T11:48:51;2.92;;;1.40;;
49412;SDS011;35493;50.276;9.372;2022-10-16T11:51:25;2.42;;;1.65;;
49412;SDS011;35493;50.276;9.372;2022-10-16T11:54:03;4.90;;;2.30;;
49412;SDS011;35493;50.276;9.372;2022-10-16T11:56:35;4.28;;;2.50;;
49412;SDS011;35493;50.276;9.372;2022-10-16T11:59:06;4.88;;;2.90;;
49412;SDS011;35493;50.276;9.372;2022-10-16T12:01:42;5.60;;;2.50;;
49412;SDS011;35493;50.276;9.372;2022-10-16T12:04:15;6.35;;;2.33;;
49412;SDS011;35493;50.276;9.372;2022-10-16T12:06:48;7.38;;;3.15;;
49412;SDS011;35493;50.276;9.372;2022-10-16T12:09:22;6.55;;;3.42;;
49412;SDS011;35493;50.276;9.372;2022-10-16T12:11:51;6.80;;;2.80;;
49412;SDS011;35493;50.276;9.372;2022-10-16T12:14:20;7.88;;;3.97;;
49412;SDS011;35493;50.276;9.372;2022-10-16T12:17:00;7.13;;;3.53;;
49412;SDS011;35493;50.276;9.372;2022-10-16T12:19:30;6.13;;;3.53;;
49412;SDS011;35493;50.276;9.372;2022-10-16T12:21:58;8.05;;;3.30;;
49412;SDS011;35493;50.276;9.372;2022-10-16T12:24:33;6.57;;;3.47;;
49412;SDS011;35493;50.276;9.372;2022-10-16T12:27:02;6.57;;;3.20;;
49412;SDS011;35493;50.276;9.372;2022-10-16T12:29:35;5.57;;;3.17;;
49412;SDS011;35493;50.276;9.372;2022-10-16T12:32:04;7.80;;;3.08;;
49412;SDS011;35493;50.276;9.372;2022-10-16T12:34:46;5.95;;;2.70;;
49412;SDS011;35493;50.276;9.372;2022-10-16T12:37:19;5.45;;;2.78;;
49412;SDS011;35493;50.276;9.372;2022-10-16T12:39:50;5.63;;;2.72;;
49412;SDS011;35493;50.276;9.372;2022-10-16T12:42:20;6.47;;;2.70;;
49412;SDS011;35493;50.276;9.372;2022-10-16T12:47:20;4.65;;;2.00;;
49412;SDS011;35493;50.276;9.372;2022-10-16T12:50:00;4.50;;;2.20;;
49412;SDS011;35493;50.276;9.372;2022-10-16T12:52:29;4.05;;;2.00;;
49412;SDS011;35493;50.276;9.372;2022-10-16T12:55:04;4.28;;;1.83;;
49412;SDS011;35493;50.276;9.372;2022-10-16T12:57:42;3.45;;;1.80;;
49412;SDS011;35493;50.276;9.372;2022-10-16T13:00:21;3.97;;;1.70;;
49412;SDS011;35493;50.276;9.372;2022-10-16T13:02:58;3.95;;;1.80;;
49412;SDS011;35493;50.276;9.372;2022-10-16T13:05:49;4.93;;;1.85;;
49412;SDS011;35493;50.276;9.372;2022-10-16T13:08:30;3.75;;;1.80;;
49412;SDS011;35493;50.276;9.372;2022-10-16T13:13:54;3.72;;;1.35;;
49412;SDS011;35493;50.276;9.372;2022-10-16T13:16:34;3.13;;;1.67;;
49412;SDS011;35493;50.276;9.372;2022-10-16T13:19:11;4.50;;;1.80;;
49412;SDS011;35493;50.276;9.372;2022-10-16T13:21:50;3.90;;;1.90;;
49412;SDS011;35493;50.276;9.372;2022-10-16T13:24:26;4.22;;;1.77;;
49412;SDS011;35493;50.276;9.372;2022-10-16T13:27:09;3.92;;;1.70;;
49412;SDS011;35493;50.276;9.372;2022-10-16T13:29:43;4.35;;;1.30;;
49412;SDS011;35493;50.276;9.372;2022-10-16T13:32:10;3.30;;;1.70;;
49412;SDS011;35493;50.276;9.372;2022-10-16T13:34:43;2.08;;;1.15;;
49412;SDS011;35493;50.276;9.372;2022-10-16T13:37:16;3.30;;;1.30;;
49412;SDS011;35493;50.276;9.372;2022-10-16T13:39:48;4.13;;;1.48;;
49412;SDS011;35493;50.276;9.372;2022-10-16T13:42:18;2.22;;;1.33;;
49412;SDS011;35493;50.276;9.372;2022-10-16T13:44:49;2.83;;;1.25;;
49412;SDS011;35493;50.276;9.372;2022-10-16T13:47:18;3.00;;;1.20;;
49412;SDS011;35493;50.276;9.372;2022-10-16T13:49:47;2.65;;;1.35;;
49412;SDS011;35493;50.276;9.372;2022-10-16T13:52:24;3.80;;;1.20;;
49412;SDS011;35493;50.276;9.372;2022-10-16T13:54:51;2.70;;;1.30;;
49412;SDS011;35493;50.276;9.372;2022-10-16T13:57:21;3.70;;;1.27;;
49412;SDS011;35493;50.276;9.372;2022-10-16T13:59:49;1.98;;;1.20;;
49412;SDS011;35493;50.276;9.372;2022-10-16T14:02:18;3.72;;;1.45;;
49412;SDS011;35493;50.276;9.372;2022-10-16T14:04:48;3.40;;;1.08;;
49412;SDS011;35493;50.276;9.372;2022-10-16T14:07:18;3.53;;;1.10;;
49412;SDS011;35493;50.276;9.372;2022-10-16T14:09:49;2.35;;;0.80;;
49412;SDS011;35493;50.276;9.372;2022-10-16T14:12:17;2.35;;;0.90;;
49412;SDS011;35493;50.276;9.372;2022-10-16T14:14:47;1.73;;;1.00;;
49412;SDS011;35493;50.276;9.372;2022-10-16T14:17:15;2.15;;;1.10;;
49412;SDS011;35493;50.276;9.372;2022-10-16T14:22:26;2.17;;;1.00;;
49412;SDS011;35493;50.276;9.372;2022-10-16T14:24:56;2.03;;;0.90;;
49412;SDS011;35493;50.276;9.372;2022-10-16T14:27:26;1.73;;;1.08;;
49412;SDS011;35493;50.276;9.372;2022-10-16T14:30:08;2.92;;;1.02;;
49412;SDS011;35493;50.276;9.372;2022-10-16T14:32:40;3.60;;;1.00;;
49412;SDS011;35493;50.276;9.372;2022-10-16T14:35:20;2.90;;;1.25;;
49412;SDS011;35493;50.276;9.372;2022-10-16T14:37:51;2.17;;;1.10;;
49412;SDS011;35493;50.276;9.372;2022-10-16T14:40:18;2.37;;;1.10;;
49412;SDS011;35493;50.276;9.372;2022-10-16T14:42:50;3.17;;;1.40;;
49412;SDS011;35493;50.276;9.372;2022-10-16T14:45:18;2.63;;;1.15;;
49412;SDS011;35493;50.276;9.372;2022-10-16T14:47:50;2.40;;;1.17;;
49412;SDS011;35493;50.276;9.372;2022-10-16T14:50:19;2.92;;;1.25;;
49412;SDS011;35493;50.276;9.372;2022-10-16T14:52:46;2.08;;;1.00;;
49412;SDS011;35493;50.276;9.372;2022-10-16T14:55:13;2.10;;;1.10;;
49412;SDS011;35493;50.276;9.372;2022-10-16T14:57:42;1.85;;;1.05;;
49412;SDS011;35493;50.276;9.372;2022-10-16T15:00:16;3.60;;;0.95;;
49412;SDS011;35493;50.276;9.372;2022-10-16T15:02:45;4.15;;;1.33;;
49412;SDS011;35493;50.276;9.372;2022-10-16T15:05:14;1.70;;;0.88;;
49412;SDS011;35493;50.276;9.372;2022-10-16T15:07:43;1.60;;;1.00;;
49412;SDS011;35493;50.276;9.372;2022-10-16T15:10:10;2.13;;;0.95;;
49412;SDS011;35493;50.276;9.372;2022-10-16T15:12:37;2.30;;;1.00;;
49412;SDS011;35493;50.276;9.372;2022-10-16T15:15:23;1.15;;;0.85;;
49412;SDS011;35493;50.276;9.372;2022-10-16T15:17:54;2.08;;;0.95;;
49412;SDS011;35493;50.276;9.372;2022-10-16T15:20:23;4.22;;;1.25;;
49412;SDS011;35493;50.276;9.372;2022-10-16T15:22:50;2.70;;;1.05;;
49412;SDS011;35493;50.276;9.372;2022-10-16T15:25:25;1.98;;;0.95;;
49412;SDS011;35493;50.276;9.372;2022-10-16T15:27:55;2.72;;;1.05;;
49412;SDS011;35493;50.276;9.372;2022-10-16T15:30:23;2.10;;;1.17;;